Racecast

Owen Straub

Temperance Bedford (MI) · 10 · SECMI D1MONROE · Compare head to head

Athlete rating 102.9 2025 XC season
Best race 135.4 XC
Races 75
Seasons 5 2021 — 2025

RankedNation #88425·MI #5348·MI D1 #3012·SEC #252·Team #69 ?

Rating scale ?

Cross Country

2025 XC 97.6

Temperance Bedford (MI) · Grade 10

Date Meet Event Result Place Rating Difficulty PR/SR Flags
2025-10-16 Hudson Mills Metropark - OFFICIAL 5000m 24:16 154th · 10th on team +0.036 CSR
2025-10-11 Munson Park 5000m 22:40.5 39th · 7th on team 97.4 +0.054 CSR
2025-09-27 Lake Erie Metro Park OFFICIAL 5000m 21:33.6 35th · 5th on team 103.4 +0.055 SR CSR RSR
2025-09-25 Indian Creek OFFICIAL 5000m 21:37.8 81st · 9th on team 100.2 +0.039 ★CR SR CSR RSR
2025-09-09 Willow Metropark OFFICIAL 5000m 22:05.1 86th · 6th on team 99.9 +0.048 CSR RSR
2025-08-30 BGSU 5000m 21:42.8 124th · 5th on team 92.5 -0.038 ★CR SR CSR
2025-08-30 Bowling Green 5000m 21:42.8 124th · 5th on team 91.9 -0.046 ★CR CSR
2025-08-22 Saline High School 5000m 22:17.4 25th · 7th on team 97.8 +0.039 ★CR SR CSR RSR

2024 XC 101.0

Temperance Bedford (MI) · Grade 9

Date Meet Event Result Place Rating Difficulty PR/SR Flags
2024-10-26 Lake Erie Metro Park OFFICIAL 5000m 20:54 102nd · 11th on team 106.0 +0.055
2024-10-17 Hudson Mills Metropark - OFFICIAL 5000m 20:46.06 95th · 12th on team 105.0 +0.036 ★PR ★CR SR CSR
2024-10-12 Munson Park 5000m 21:27.8 44th · 6th on team 103.3 +0.054 ★CR CSR
2024-09-28 Lake Erie Metro Park OFFICIAL 5000m 20:47 45th · 11th on team 106.6 +0.055 PR ★CR SR CSR RSR
2024-09-24 Pioneer HS 5000m 21:29.8 58th · 10th on team 104.5 +0.067 PR ★CR SR CSR RSR
2024-09-10 Willow Metropark OFFICIAL 5000m 21:47 49th · 7th on team 101.5 +0.048 ★CR CSR RSR
2024-09-07 Hedges Boyer Park 5000m 21:41.9 288th · 15th on team 93.3 -0.036 PR ★CR SR CSR RSR
2024-08-31 BGSU 5000m 22:55.3 177th · 17th on team 88.0 -0.038 PR CR SR CSR RSR
2024-08-23 Ford Field/EE Ice Arena(LIVONIA) OFFICIAL 5000m 32:22.7 222nd · 13th on team +0.070 PR ★CR SR CSR

2023 XC 130.8

Temperance Bedford (MI) · Grade 8

Date Meet Event Result Place Rating Difficulty PR/SR Flags
2023-10-25 Milan HS OFFICIAL 3218m 12:54.1 34th · 1st on team 132.8 +0.041 ★CR CSR
2023-10-14 Munson Park 3200m +0.034 SR CSR
2023-10-07 Monroe Township Stoneco Park 3218m 12:35.6 8th · 1st on team 131.1 +0.006 CSR
2023-10-04 Ella Sharp Park OFFICIAL 3218m 13:35.2 41st · 2nd on team 127.5 +0.055
2023-09-30 Lake Erie Metro Park OFFICIAL 3218m 12:29.4 29th · 1st on team 135.4 +0.034 ★PR ★CR ★R SR CSR RSR
2023-09-22 Ella Sharp Park OFFICIAL 3218m 13:11.4 55th · 1st on team 131.2 +0.055 ★CR SR CSR RSR
2023-09-20 Heritage Park (Adrian) OFFICIAL 3218m 13:21.8 25th · 1st on team 126.7 +0.046 ★CR SR CSR RSR

2022 XC 125.9

Temperance Bedford (MI) · Grade 7

Date Meet Event Result Place Rating Difficulty PR/SR Flags
2022-10-22 Hudson HS 3218m 12:50.8 48th · 4th on team 131.9 +0.029 ★CR CSR
2022-10-19 Saline High School 3218m 13:03.2 43rd · 5th on team 129.2 +0.016 ★CR CSR
2022-10-15 Munson Park 3200m 12:49.4 29th · 6th on team 132.0 +0.034 ★PR ★CR SR CSR
2022-10-08 Monroe Township Stoneco Park 3218m 12:32.7 14th · 5th on team 131.8 +0.006 PR ★CR SR CSR
2022-10-05 Tecumseh HS 3218m 13:04.4 33rd · 5th on team 130.7 +0.036 ★CR CSR
2022-10-01 Lake Erie Metro Park OFFICIAL 3218m 12:50 27th · 4th on team 132.9 +0.034 PR CR R SR CSR RSR
2022-09-23 Ella Sharp Park OFFICIAL 3218m 13:17.1 49th · 5th on team 131.5 +0.055 PR CR R SR CSR RSR
2022-09-21 Manly W. Bennett Park 3218m 14:58.5 50th · 8th on team 121.7 +0.100 ★CR R SR CSR RSR
2022-09-17 Ottawa Park Golf Course 3200m 14:11.7 46th · 8th on team 112.2 -0.037 PR ★CR SR CSR RSR
2022-09-10 Hedges Boyer Park 2816m 13:45.6 98th · 7th on team 105.0 ★PR ★CR SR CSR RSR

2021 XC 108.2

Temperance Bedford (MI) · Grade 6

Date Meet Event Result Place Rating Difficulty PR/SR Flags
2021-10-20 Munson Park 3200m 15:17.3 36th · 10th on team 112.4 +0.034 PR CR SR CSR
2021-10-16 Munson Park 3200m 15:23.6 42nd · 17th on team 111.6 +0.034 CR CSR
2021-10-09 Monroe Township Stoneco Park 3218m 14:55.7 9th · 8th on team 112.5 +0.006 CR CSR
2021-10-06 Hudson Mills Metropark - OFFICIAL 3218m 14:45.6 34th · 9th on team 120.1 +0.062 PR ★CR R SR CSR RSR
2021-10-02 Lake Erie Metro Park OFFICIAL 3218m 15:04.5 97th · 11th on team 114.4 +0.034 PR CR R SR CSR RSR
2021-09-24 Ella Sharp Park OFFICIAL 3218m 15:49.3 160th · 17th on team 112.9 +0.055 PR CR R SR CSR RSR
2021-09-18 Ottawa Park Golf Course 3200m 15:20.3 130th · 19th on team 104.1 -0.037 PR CR R SR CSR RSR
2021-09-11 Hedges Boyer Park 3200m 16:30.3 147th · 10th on team 91.9 -0.089 PR ★CR SR CSR
2021-09-01 Eastwood High School 3200m 17:00 92nd · 15th on team 93.6 -0.040 PR ★CR R SR CSR RSR

Track & Field

2025 TF

Temperance Bedford (MI) · Grade 9

Date Meet Event Result Place Rating Difficulty PR/SR Flags
2025-05-22 Dundee Jim Beck Freshman Invite 100m 12.7 16th · 4th on team -0.026 ★PR SR
2025-05-22 Dundee Jim Beck Freshman Invite 400m 59.17 8th · 2nd on team -0.026
2025-04-29 SEC-HS: Lincoln @ Bedford 100m 12.92 23rd · 18th on team -0.033 PR SR
2025-04-29 SEC-HS: Lincoln @ Bedford 400m 1:00.5 9th · 8th on team -0.033
2025-04-22 SEC-HS: Bedford & Pioneer @ Monroe 100m 13.44 23rd · 7th on team -0.032 SR
2025-04-22 SEC-HS: Bedford & Pioneer @ Monroe 400m 59.13 4th · 4th on team -0.032 ★PR SR
2025-04-15 SEC-HS: Bedford & Dexter @ Skyline 100m 13.69 48th · 17th on team -0.033 SR
2025-04-15 SEC-HS: Bedford & Dexter @ Skyline 400m 1:01.73 25th · 7th on team -0.033 PR SR
2025-04-07 SEC-HS: Huron & Saline @ Bedford 400m 1:03.43 26th · 9th on team -0.033 SR
2025-04-07 SEC-HS: Huron & Saline @ Bedford 100m 13.87 54th · 17th on team -0.033 SR

2024 TF

Temperance Bedford (MI) · Grade 8

Date Meet Event Result Place Rating Difficulty PR/SR Flags
2024-05-14 SEC-MS Championship (Pinc) 100m 12.97 15th · 2nd on team -0.033 PR SR
2024-05-14 SEC-MS Championship (Pinc) 200mh 29.06 4th · 2nd on team -0.033 ★PR SR
2024-05-10 SEC-MS: Monroe at Bedford 100m 13.1 2nd · 2nd on team -0.033 PR SR
2024-05-10 SEC-MS: Monroe at Bedford 200mh 30.75 2nd · 2nd on team -0.033 SR
2024-04-25 SEC MS: Saline @ Bedford 100m 13.88 7th · 2nd on team -0.033 PR SR
2024-04-25 SEC MS: Saline @ Bedford 55mh 10.36 5th · 4th on team -0.033 SR

2023 TF

Temperance Bedford (MI) · Grade 7

Date Meet Event Result Place Rating Difficulty PR/SR Flags
2023-05-22 SEC-MS: Championship 200mh 30.58 7th · 3rd on team -0.042
2023-05-22 SEC-MS: Championship 55mh 9.41 6th · 3rd on team -0.042 ★PR SR
2023-05-15 SEC-MS: Lincoln & Bedford @ Monroe 200mh 30.57 3rd · 3rd on team -0.032 PR SR
2023-05-15 SEC-MS: Lincoln & Bedford @ Monroe 55mh 10.26 9th · 5th on team -0.032
2023-05-08 SEC-MS Chelsea & Ypsi @Bedford shot 29-9 -0.033
2023-05-08 SEC-MS Chelsea & Ypsi @Bedford 400m 1:02.34 5th · 5th on team -0.033 PR SR
2023-05-08 SEC-MS Chelsea & Ypsi @Bedford 55mh 9.44 4th · 3rd on team -0.033 PR SR
2023-05-04 SEC-MS Bedford at Saline 400m 1:02.97 5th · 4th on team -0.038 PR SR
2023-05-04 SEC-MS Bedford at Saline 55mh 10.17 6th · 4th on team -0.038
2023-04-27 SEC-MS: Bedford @ Pinckney 55mh 9.74 2nd · 2nd on team -0.032 PR SR
2023-04-27 SEC-MS: Bedford @ Pinckney 400m 1:04.04 3rd · 3rd on team -0.032 PR SR

2022 TF 103.6

Temperance Bedford (MI) · Grade 6

Date Meet Event Result Place Rating Difficulty PR/SR Flags
2022-05-09 SEC-MS Tecumseh @ Bedford 400m 1:06.54 7th · 6th on team -0.033 PR SR
2022-04-28 SEC-MS Monroe @ Bedford 100m 14.77 8th · 7th on team -0.033
2022-04-28 SEC-MS Monroe @ Bedford 800m 2:55.67 8th · 7th on team 103.6 -0.033 ★PR SR RSR
2022-04-25 SEC MS: Lincoln @ Bedford 100m 14.26 13th · 9th on team -0.033 PR SR
2022-04-25 SEC MS: Lincoln @ Bedford 200m 30.42 11th · 10th on team -0.033 ★PR SR